createdAt,value
2023-04-18T00:01:49.029Z,97.13
2023-04-18T00:06:49.040Z,97.12
2023-04-18T00:11:49.041Z,97.11
2023-04-18T00:16:49.032Z,97.11
2023-04-18T00:21:49.043Z,97.11
2023-04-18T00:26:49.034Z,97.11
2023-04-18T00:31:49.046Z,97.1
2023-04-18T00:36:49.046Z,97.11
2023-04-18T00:41:49.047Z,97.11
2023-04-18T00:46:49.050Z,97.1
2023-04-18T00:51:49.040Z,97.1
2023-04-18T00:56:49.052Z,97.1
2023-04-18T01:01:49.042Z,97.1
2023-04-18T01:06:49.054Z,97.1
2023-04-18T01:11:49.054Z,97.1
2023-04-18T01:16:49.045Z,97.09
2023-04-18T01:21:49.056Z,97.08
2023-04-18T01:26:49.046Z,97.08
2023-04-18T01:31:49.059Z,97.08
2023-04-18T01:36:49.059Z,97.08
2023-04-18T01:41:49.061Z,97.07
2023-04-18T01:46:49.062Z,97.07
2023-04-18T01:51:49.053Z,97.07
2023-04-18T01:56:49.064Z,97.07
2023-04-18T02:01:49.055Z,97.07
2023-04-18T02:06:49.067Z,97.06
2023-04-18T02:11:49.067Z,97.05
2023-04-18T02:16:49.133Z,97.06
2023-04-18T02:21:49.069Z,97.06
2023-04-18T02:26:49.060Z,97.05
2023-04-18T02:31:49.072Z,97.05
2023-04-18T02:36:49.072Z,97.06
2023-04-18T02:41:49.074Z,97.06
2023-04-18T02:46:49.115Z,97.05
2023-04-18T02:51:49.066Z,97.05
2023-04-18T02:56:49.079Z,97.05
2023-04-18T03:01:49.068Z,97.05
2023-04-18T03:06:49.080Z,97.04
2023-04-18T03:11:49.080Z,97.05
2023-04-18T03:16:49.082Z,97.05
2023-04-18T03:21:49.084Z,97.05
2023-04-18T03:26:49.073Z,97.06
2023-04-18T03:31:49.085Z,97.06
2023-04-18T03:36:49.075Z,97.05
2023-04-18T03:41:49.087Z,97.05
2023-04-18T03:46:49.087Z,97.05
2023-04-18T03:51:49.078Z,97.06
2023-04-18T03:56:49.092Z,97.06
2023-04-18T04:01:49.081Z,97.06
2023-04-18T04:06:49.093Z,97.07
2023-04-18T04:11:49.093Z,97.07
2023-04-18T04:16:49.095Z,97.07
2023-04-18T04:21:49.095Z,97.07
2023-04-18T04:26:49.086Z,97.07
2023-04-18T04:31:49.098Z,97.07
2023-04-18T04:36:49.088Z,97.07
2023-04-18T04:41:49.100Z,97.08
2023-04-18T04:46:49.100Z,97.08
2023-04-18T04:51:49.090Z,97.08
2023-04-18T04:56:49.102Z,97.08
2023-04-18T05:01:49.093Z,97.08
2023-04-18T05:06:49.105Z,97.09
2023-04-18T05:11:49.105Z,97.08
2023-04-18T05:16:49.107Z,97.09
2023-04-18T05:21:49.147Z,97.09
2023-04-18T05:26:49.098Z,97.1
2023-04-18T05:31:49.110Z,97.09
2023-04-18T05:36:49.101Z,97.09
2023-04-18T05:41:49.153Z,97.09
2023-04-18T05:46:49.113Z,97.09
2023-04-18T05:51:49.115Z,97.1
2023-04-18T05:56:49.117Z,97.1
2023-04-18T06:01:49.106Z,97.1
2023-04-18T06:06:49.118Z,97.11
2023-04-18T06:11:49.108Z,97.11
2023-04-18T06:16:49.120Z,97.11
2023-04-18T06:21:49.120Z,97.11
2023-04-18T06:26:49.112Z,97.11
2023-04-18T06:31:49.123Z,97.12
2023-04-18T06:36:49.114Z,97.11
2023-04-18T06:41:49.126Z,97.12
2023-04-18T06:46:49.126Z,97.12
2023-04-18T06:51:49.128Z,97.11
2023-04-18T06:56:49.129Z,97.11
2023-04-18T07:01:49.120Z,97.1
2023-04-18T07:06:49.131Z,97.11
2023-04-18T07:11:49.122Z,97.11
2023-04-18T07:16:49.134Z,97.11
2023-04-18T07:21:49.134Z,97.12
2023-04-18T07:26:49.125Z,97.12
2023-04-18T07:31:49.139Z,97.12
2023-04-18T07:36:49.128Z,97.12
2023-04-18T07:41:49.140Z,97.12
2023-04-18T07:46:49.141Z,97.12
2023-04-18T07:51:49.143Z,97.12
2023-04-18T07:56:49.183Z,97.12
2023-04-18T08:01:49.135Z,97.12
2023-04-18T08:06:49.148Z,97.12
2023-04-18T08:11:49.137Z,97.12
2023-04-18T08:16:49.149Z,97.12
2023-04-18T08:21:49.150Z,97.11
2023-04-18T08:26:49.152Z,97.07
2023-04-18T08:31:49.153Z,97.08
2023-04-18T08:36:49.145Z,97.08
2023-04-18T08:41:49.158Z,97.1
2023-04-18T08:46:49.148Z,97.1
2023-04-18T08:51:49.161Z,97.1
2023-04-18T08:56:49.162Z,97.11
2023-04-18T09:01:49.154Z,97.12
2023-04-18T09:06:49.167Z,97.13
2023-04-18T09:11:49.157Z,97.13
2023-04-18T09:16:49.170Z,97.13
2023-04-18T09:21:49.170Z,97.13
2023-04-18T09:26:49.173Z,97.11
2023-04-18T09:31:49.175Z,97.09
2023-04-18T09:36:49.166Z,97.1
2023-04-18T09:41:49.179Z,97.11
2023-04-18T09:46:49.170Z,97.12
2023-04-18T09:51:49.182Z,97.11
2023-04-18T09:56:49.183Z,97.11
2023-04-18T10:01:49.174Z,97.13
2023-04-18T10:06:49.187Z,97.13
2023-04-18T10:11:49.178Z,97.13
2023-04-18T10:16:49.191Z,97.13
2023-04-18T10:21:49.182Z,97.13
2023-04-18T10:26:49.195Z,97.13
2023-04-18T10:31:49.235Z,97.12
2023-04-18T10:36:49.187Z,97.12
2023-04-18T10:41:49.201Z,97.13
2023-04-18T10:46:49.191Z,97.13
2023-04-18T10:51:49.203Z,97.12
2023-04-18T10:56:49.204Z,97.12
2023-04-18T11:01:49.207Z,97.11
2023-04-18T11:06:49.210Z,97.12
2023-04-18T11:11:49.200Z,97.11
2023-04-18T11:16:49.212Z,97.1
2023-04-18T11:21:49.203Z,97.09
2023-04-18T11:26:49.216Z,97.1
2023-04-18T11:32:05.695Z,97.1
2023-04-18T11:36:49.209Z,97.1
2023-04-18T11:41:49.223Z,97.09
2023-04-18T11:46:49.213Z,97.09
2023-04-18T11:51:49.225Z,97.1
2023-04-18T11:56:49.226Z,97.09
2023-04-18T12:06:49.231Z,97.1
2023-04-18T12:11:49.222Z,97.11
2023-04-18T12:16:49.234Z,97.11
2023-04-18T12:21:49.226Z,97.1
2023-04-18T12:26:49.238Z,97.11
2023-04-18T12:31:49.239Z,97.09
2023-04-18T12:36:49.230Z,97.08
2023-04-18T12:41:49.245Z,97.08
2023-04-18T12:46:49.235Z,97.08
2023-04-18T12:51:49.246Z,97.09
2023-04-18T12:56:49.238Z,97.09
2023-04-18T13:01:49.251Z,97.09
2023-04-18T13:06:49.252Z,97.08
2023-04-18T13:11:49.244Z,97.09
2023-04-18T13:16:49.258Z,97.08
2023-04-18T13:21:49.248Z,97.09
2023-04-18T13:26:49.259Z,97.1
2023-04-18T13:31:49.262Z,97.09
2023-04-18T13:36:49.263Z,97.06
2023-04-18T13:41:49.267Z,97.05
2023-04-18T13:46:49.257Z,97.08
2023-04-18T13:56:49.262Z,97.09
2023-04-18T14:06:49.276Z,97.1
2023-04-18T14:11:49.268Z,97.11
2023-04-18T14:16:49.281Z,97.11
2023-04-18T14:21:49.271Z,97.11
2023-04-18T14:26:49.283Z,97.11
2023-04-18T14:31:49.285Z,97.11
2023-04-18T14:36:49.287Z,97.1
2023-04-18T14:41:49.291Z,97.1
2023-04-18T14:46:49.280Z,97.1
2023-04-18T14:51:49.293Z,97.11
2023-04-18T14:56:49.284Z,97.11
2023-04-18T15:01:49.296Z,97.11
2023-04-18T15:06:49.298Z,97.11
2023-04-18T15:11:49.290Z,97.11
2023-04-18T15:16:49.303Z,97.11
2023-04-18T15:21:49.293Z,97.1
2023-04-18T15:26:49.305Z,97.1
2023-04-18T15:31:49.307Z,97.1
2023-04-18T15:36:49.309Z,97.1
2023-04-18T15:41:49.312Z,97.11
2023-04-18T15:46:49.302Z,97.1
2023-04-18T15:51:49.314Z,97.1
2023-04-18T15:56:49.306Z,97.11
2023-04-18T16:01:49.317Z,97.11
2023-04-18T16:06:49.319Z,97.11
2023-04-18T16:11:49.345Z,97.12
2023-04-18T16:16:49.325Z,97.12
2023-04-18T16:21:49.314Z,97.12
2023-04-18T16:26:49.326Z,97.13
2023-04-18T16:36:49.329Z,97.14
2023-04-18T16:41:49.333Z,97.14
2023-04-18T16:46:49.323Z,97.14
2023-04-18T16:51:49.336Z,97.14
2023-04-18T16:56:49.326Z,97.14
2023-04-18T17:01:49.337Z,97.14
2023-04-18T17:06:49.339Z,97.15
2023-04-18T17:11:49.341Z,97.15
2023-04-18T17:16:49.344Z,97.15
2023-04-18T17:21:49.334Z,97.16
2023-04-18T17:26:49.345Z,97.16
2023-04-18T17:31:49.337Z,97.17
2023-04-18T17:36:49.348Z,97.17
2023-04-18T17:41:49.351Z,97.17
2023-04-18T17:46:49.342Z,97.18
2023-04-18T17:51:49.355Z,97.18
2023-04-18T17:56:49.344Z,97.19
2023-04-18T18:01:49.356Z,97.19
2023-04-18T18:06:49.358Z,97.2
2023-04-18T18:11:49.359Z,97.2
2023-04-18T18:22:05.830Z,97.21
2023-04-18T18:27:05.840Z,97.21
2023-04-18T18:32:05.833Z,97.21
2023-04-18T18:37:05.844Z,97.23
2023-04-18T18:42:05.848Z,97.23
2023-04-18T18:46:49.359Z,97.23
2023-04-18T18:51:49.371Z,97.25
2023-04-18T18:57:05.850Z,97.25
2023-04-18T19:02:05.851Z,97.25
2023-04-18T19:07:05.854Z,97.26
2023-04-18T19:11:49.366Z,97.27
2023-04-18T19:16:49.378Z,97.27
2023-04-18T19:22:05.847Z,97.27
2023-04-18T19:26:49.380Z,97.27
2023-04-18T19:32:05.860Z,97.27
2023-04-18T19:36:49.373Z,97.28
2023-04-18T19:41:49.385Z,97.28
2023-04-18T19:46:49.376Z,97.27
2023-04-18T19:51:49.387Z,97.27
2023-04-18T19:56:49.389Z,97.28
2023-04-18T20:01:49.390Z,97.28
2023-04-18T20:06:49.391Z,97.28
2023-04-18T20:11:49.383Z,97.28
2023-04-18T20:16:49.394Z,97.28
2023-04-18T20:21:49.386Z,97.28
2023-04-18T20:26:49.397Z,97.29
2023-04-18T20:31:49.398Z,97.28
2023-04-18T20:36:49.390Z,97.28
2023-04-18T20:41:49.403Z,97.28
2023-04-18T20:46:49.392Z,97.28
2023-04-18T20:51:49.404Z,97.3
2023-04-18T20:56:49.405Z,97.29
2023-04-18T21:01:49.406Z,97.29
2023-04-18T21:06:49.408Z,97.29
2023-04-18T21:16:49.410Z,97.29
2023-04-18T21:21:49.402Z,97.28
2023-04-18T21:26:49.437Z,97.29
2023-04-18T21:31:49.415Z,97.29
2023-04-18T21:36:49.418Z,97.29
2023-04-18T21:41:49.417Z,97.29
2023-04-18T21:46:49.408Z,97.29
2023-04-18T21:51:49.419Z,97.29
2023-04-18T21:56:49.421Z,97.28
2023-04-18T22:01:49.422Z,97.29
2023-04-18T22:06:49.463Z,97.29
2023-04-18T22:11:49.415Z,97.28
2023-04-18T22:16:49.426Z,97.28
2023-04-18T22:21:49.417Z,97.27
2023-04-18T22:26:49.429Z,97.27
2023-04-18T22:31:49.430Z,97.27
2023-04-18T22:36:49.431Z,97.28
2023-04-18T22:41:49.432Z,97.28
2023-04-18T22:46:49.424Z,97.28
2023-04-18T22:51:49.435Z,97.28
2023-04-18T22:56:49.426Z,97.28
2023-04-18T23:01:49.438Z,97.28
2023-04-18T23:06:49.439Z,97.28
2023-04-18T23:11:49.430Z,97.29
2023-04-18T23:16:49.441Z,97.29
2023-04-18T23:21:49.433Z,97.29
2023-04-18T23:26:49.444Z,97.28
2023-04-18T23:31:49.445Z,97.27
2023-04-18T23:36:49.446Z,97.27
2023-04-18T23:41:49.448Z,97.27
2023-04-18T23:46:49.439Z,97.27
2023-04-18T23:51:49.451Z,97.26
2023-04-18T23:56:49.441Z,97.26
